Time;durP1;ratioP1;P1;durP2;ratioP2;P2;SDS_P1;SDS_P2;PMS_P1;PMS_P2;Temp;Humidity;BMP_temperature;BMP_pressure;BME280_temperature;BME280_humidity;BME280_pressure;Samples;Min_cycle;Max_cycle;Signal;HPM_P1;HPM_P2
2023/01/16 00:01:21;;;;;;;1.85;1.13;;;4.80;99.90;;;;;;5003578;28;20038;-73
2023/01/16 00:03:47;;;;;;;2.60;1.30;;;4.80;99.90;;;;;;5005240;28;20033;-73
2023/01/16 00:06:12;;;;;;;5.82;1.67;;;4.80;99.90;;;;;;5008055;28;20103;-73
2023/01/16 00:08:38;;;;;;;3.40;1.80;;;4.80;99.90;;;;;;4999486;28;20040;-74
2023/01/16 00:11:04;;;;;;;2.28;1.48;;;4.80;99.90;;;;;;5010060;28;20042;-74
2023/01/16 00:13:29;;;;;;;5.10;1.88;;;4.70;99.90;;;;;;5001032;28;20038;-73
2023/01/16 00:15:55;;;;;;;3.42;1.67;;;4.70;99.90;;;;;;5008871;28;20050;-72
2023/01/16 00:18:21;;;;;;;2.72;1.33;;;4.60;99.90;;;;;;5008425;28;20040;-73
2023/01/16 00:20:48;;;;;;;7.50;1.92;;;4.60;99.90;;;;;;5007697;28;20751;-73
2023/01/16 00:23:14;;;;;;;3.22;1.70;;;4.50;99.90;;;;;;5007612;28;20030;-73
2023/01/16 00:25:41;;;;;;;4.57;2.00;;;4.50;99.90;;;;;;5007121;28;20064;-73
2023/01/16 00:28:08;;;;;;;4.88;2.33;;;4.50;99.90;;;;;;5009936;28;20064;-73
2023/01/16 00:30:33;;;;;;;6.63;3.15;;;4.40;99.90;;;;;;5009359;28;20026;-74
2023/01/16 00:32:59;;;;;;;5.20;2.83;;;4.40;99.90;;;;;;5008403;28;20053;-72
2023/01/16 00:35:26;;;;;;;5.85;2.92;;;4.30;99.90;;;;;;5009001;28;20124;-73
2023/01/16 00:37:52;;;;;;;5.53;2.80;;;4.40;99.90;;;;;;5007005;28;20033;-73
2023/01/16 00:40:18;;;;;;;5.88;2.97;;;4.40;99.90;;;;;;5009604;28;20038;-74
2023/01/16 00:42:43;;;;;;;9.82;3.42;;;4.30;99.90;;;;;;5008204;28;20049;-74
2023/01/16 00:45:09;;;;;;;12.55;3.40;;;4.30;99.90;;;;;;5007253;28;20037;-72
2023/01/16 00:47:35;;;;;;;8.32;3.35;;;4.20;99.90;;;;;;5008431;28;20073;-73
2023/01/16 00:50:00;;;;;;;5.85;3.35;;;4.20;99.90;;;;;;5007811;28;20072;-72
2023/01/16 00:52:26;;;;;;;7.25;3.50;;;4.20;99.90;;;;;;5009084;28;20048;-72
2023/01/16 00:54:52;;;;;;;9.45;4.13;;;4.20;99.90;;;;;;5008008;28;20068;-74
2023/01/16 00:57:17;;;;;;;7.00;3.95;;;4.30;99.90;;;;;;5009611;28;20095;-72
2023/01/16 00:59:43;;;;;;;9.45;4.90;;;4.30;99.90;;;;;;5007136;28;20042;-75
2023/01/16 01:02:08;;;;;;;8.73;3.92;;;4.20;99.90;;;;;;5009526;28;20169;-72
2023/01/16 01:04:34;;;;;;;7.43;3.72;;;4.30;99.90;;;;;;5007774;28;20160;-73
2023/01/16 01:06:59;;;;;;;6.97;3.60;;;4.20;99.90;;;;;;5008016;28;20038;-74
2023/01/16 01:09:25;;;;;;;7.32;3.20;;;4.20;99.90;;;;;;5009314;28;20057;-72
2023/01/16 01:11:51;;;;;;;9.65;2.88;;;4.20;99.90;;;;;;5013557;28;20117;-72
2023/01/16 01:14:16;;;;;;;6.40;2.60;;;4.20;99.90;;;;;;5004531;28;20052;-72
2023/01/16 01:16:42;;;;;;;7.28;2.67;;;4.10;99.90;;;;;;5024764;28;20034;-73
2023/01/16 01:19:07;;;;;;;8.30;2.75;;;4.10;99.90;;;;;;5008644;28;20414;-74
2023/01/16 01:21:33;;;;;;;6.13;3.22;;;4.00;99.90;;;;;;5008741;28;20065;-73
2023/01/16 01:23:58;;;;;;;6.30;2.53;;;4.00;99.90;;;;;;5005112;28;20430;-72
2023/01/16 01:26:24;;;;;;;11.15;3.03;;;4.00;99.90;;;;;;5003583;28;20038;-72
2023/01/16 01:28:50;;;;;;;12.70;2.80;;;4.00;99.90;;;;;;4999705;28;20022;-73
2023/01/16 01:31:15;;;;;;;6.38;2.90;;;4.00;99.90;;;;;;5012251;28;20483;-73
2023/01/16 01:33:41;;;;;;;9.32;3.15;;;4.00;99.90;;;;;;4996448;28;20054;-73
2023/01/16 01:36:08;;;;;;;5.93;2.83;;;3.90;99.90;;;;;;4998386;28;20501;-73
2023/01/16 01:38:34;;;;;;;8.73;3.60;;;3.90;99.90;;;;;;4996798;28;20038;-75
2023/01/16 01:40:59;;;;;;;11.55;4.00;;;3.90;99.90;;;;;;4999905;28;20099;-72
2023/01/16 01:43:52;;;;;;;7.07;3.72;;;3.90;99.90;;;;;;4996656;28;20407;-73
2023/01/16 01:46:40;;;;;;;6.50;2.85;;;3.80;99.90;;;;;;5003491;28;20141;-74
2023/01/16 01:49:27;;;;;;;5.70;2.90;;;3.80;99.90;;;;;;5006075;28;20095;-73
2023/01/16 01:51:57;;;;;;;6.05;2.80;;;3.80;99.90;;;;;;5003165;28;20033;-75
2023/01/16 01:54:33;;;;;;;14.85;4.45;;;3.70;99.90;;;;;;5007599;28;20034;-73
2023/01/16 01:57:09;;;;;;;14.63;3.10;;;3.80;99.90;;;;;;5007522;28;20030;-73
2023/01/16 01:59:44;;;;;;;14.63;3.25;;;3.80;99.90;;;;;;5009155;28;20037;-74
2023/01/16 02:02:14;;;;;;;7.72;2.90;;;3.80;99.90;;;;;;4998450;28;20528;-73
2023/01/16 02:04:43;;;;;;;8.07;3.38;;;3.70;99.90;;;;;;5008134;28;20057;-73
2023/01/16 02:07:14;;;;;;;7.75;2.70;;;3.70;99.90;;;;;;5010556;28;20573;-73
2023/01/16 02:09:40;;;;;;;6.88;2.80;;;3.70;99.90;;;;;;5011225;28;20092;-73
2023/01/16 02:12:11;;;;;;;14.45;3.75;;;3.70;99.90;;;;;;5015265;28;20457;-75
2023/01/16 02:14:39;;;;;;;6.80;2.25;;;3.70;99.90;;;;;;5006435;28;20410;-73
2023/01/16 02:20:23;;;;;;;19.48;3.15;;;3.70;99.90;;;;;;5007726;28;20568;-72
2023/01/16 02:22:52;;;;;;;6.93;2.63;;;3.70;99.90;;;;;;5006936;28;20450;-73
2023/01/16 02:25:42;;;;;;;6.18;2.55;;;3.80;99.90;;;;;;5005343;28;20089;-73
2023/01/16 02:28:39;;;;;;;4.78;2.38;;;3.80;99.90;;;;;;5002554;28;20179;-72
2023/01/16 02:31:08;;;;;;;7.70;2.90;;;3.80;99.90;;;;;;5011355;28;20561;-74
2023/01/16 02:33:36;;;;;;;14.05;3.55;;;3.80;99.90;;;;;;5028422;28;20144;-73
2023/01/16 02:36:43;;;;;;;4.95;2.25;;;3.80;99.90;;;;;;5011953;28;20034;-73
2023/01/16 02:39:28;;;;;;;5.35;2.13;;;3.80;99.90;;;;;;4999982;28;20029;-74
2023/01/16 02:42:23;;;;;;;4.78;2.22;;;3.90;99.90;;;;;;5007847;28;20494;-73
2023/01/16 02:44:52;;;;;;;6.72;2.25;;;3.80;99.90;;;;;;4998780;28;20061;-73
2023/01/16 02:47:41;;;;;;;3.25;1.67;;;3.80;99.90;;;;;;5008332;28;20049;-73
2023/01/16 02:50:22;;;;;;;7.25;2.47;;;3.80;99.90;;;;;;5010490;28;20045;-72
2023/01/16 02:53:10;;;;;;;3.95;1.73;;;3.80;99.90;;;;;;5006886;28;20433;-73
2023/01/16 02:55:46;;;;;;;5.45;1.50;;;3.70;99.90;;;;;;5009189;28;20041;-74
2023/01/16 02:58:14;;;;;;;4.55;1.77;;;3.70;99.90;;;;;;5011066;28;20038;-73
2023/01/16 03:00:52;;;;;;;8.60;2.53;;;3.70;99.90;;;;;;5009414;28;20040;-73
2023/01/16 03:03:32;;;;;;;6.35;1.40;;;3.70;99.90;;;;;;5010713;28;20040;-74
2023/01/16 03:06:05;;;;;;;2.88;1.30;;;3.70;99.90;;;;;;5010384;28;20120;-73
2023/01/16 03:09:12;;;;;;;6.85;1.30;;;3.70;99.90;;;;;;5009624;28;20196;-73
2023/01/16 03:12:04;;;;;;;4.85;1.23;;;3.70;99.90;;;;;;5002810;28;20042;-73
2023/01/16 03:14:39;;;;;;;7.90;1.83;;;3.70;99.90;;;;;;5006840;28;20105;-74
2023/01/16 03:17:17;;;;;;;3.25;0.93;;;3.70;99.90;;;;;;5010608;28;20034;-73
2023/01/16 03:20:01;;;;;;;3.17;0.70;;;3.70;99.90;;;;;;5009131;28;20072;-73
2023/01/16 03:22:43;;;;;;;5.22;0.90;;;3.70;99.90;;;;;;5009194;28;20459;-73
2023/01/16 03:25:54;;;;;;;2.22;0.60;;;3.70;99.90;;;;;;5008552;28;20061;-72
2023/01/16 03:28:32;;;;;;;;;;;3.70;99.90;;;;;;4969738;28;20045;-73
2023/01/16 03:31:26;;;;;;;0.95;0.25;;;3.70;99.90;;;;;;5008917;28;20451;-73
2023/01/16 03:34:38;;;;;;;6.35;1.42;;;3.70;99.90;;;;;;5012654;28;20038;-73
2023/01/16 03:37:24;;;;;;;3.55;0.68;;;3.70;99.90;;;;;;5012059;28;20072;-74
2023/01/16 03:40:00;;;;;;;2.70;0.60;;;3.80;99.90;;;;;;5008487;28;20034;-73
2023/01/16 03:42:34;;;;;;;1.48;0.35;;;3.70;99.90;;;;;;5008724;28;20040;-73
2023/01/16 03:45:06;;;;;;;2.42;0.68;;;3.70;99.90;;;;;;4997580;28;20038;-73
2023/01/16 03:47:40;;;;;;;2.95;0.38;;;3.70;99.90;;;;;;5001153;28;20046;-73
2023/01/16 03:50:08;;;;;;;1.83;0.40;;;3.70;99.90;;;;;;4999421;28;20038;-73
2023/01/16 03:52:40;;;;;;;9.30;1.10;;;3.70;99.90;;;;;;4999790;28;20042;-73
2023/01/16 03:55:12;;;;;;;4.10;0.73;;;3.80;99.90;;;;;;4997699;28;20042;-74
2023/01/16 03:57:55;;;;;;;3.13;1.08;;;3.80;99.90;;;;;;5000891;28;20056;-71
2023/01/16 04:00:23;;;;;;;4.57;0.98;;;3.90;99.90;;;;;;4999814;28;20066;-74
2023/01/16 04:02:54;;;;;;;3.78;0.80;;;3.90;99.90;;;;;;4999181;28;20107;-72
2023/01/16 04:05:23;;;;;;;10.45;1.38;;;3.90;99.90;;;;;;4999489;28;20089;-73
2023/01/16 04:08:11;;;;;;;2.47;0.60;;;3.90;99.90;;;;;;4999510;28;20046;-73
2023/01/16 04:10:41;;;;;;;6.80;0.88;;;3.80;99.90;;;;;;5001723;28;20120;-74
2023/01/16 04:13:30;;;;;;;2.88;0.60;;;3.80;99.90;;;;;;4997203;28;20041;-73
2023/01/16 04:15:57;;;;;;;6.38;0.70;;;3.90;99.90;;;;;;4999563;28;20029;-73
2023/01/16 04:18:28;;;;;;;5.47;1.10;;;3.90;99.90;;;;;;4998631;28;20077;-72
2023/01/16 04:20:53;;;;;;;3.60;0.90;;;3.90;99.90;;;;;;4998044;28;20093;-74
2023/01/16 04:23:19;;;;;;;5.93;0.88;;;3.80;99.90;;;;;;5002071;28;20054;-72
2023/01/16 04:25:45;;;;;;;9.40;1.20;;;3.90;99.90;;;;;;5009760;28;20034;-73
2023/01/16 04:28:11;;;;;;;8.38;1.05;;;3.80;99.90;;;;;;5004020;28;20096;-72
2023/01/16 04:30:36;;;;;;;3.20;0.60;;;3.80;99.90;;;;;;5006878;28;20527;-73
2023/01/16 04:33:05;;;;;;;3.55;0.90;;;3.80;99.90;;;;;;5008593;28;20065;-73
2023/01/16 04:35:32;;;;;;;4.22;1.17;;;3.80;99.90;;;;;;5011238;28;20044;-75
2023/01/16 04:37:57;;;;;;;1.45;0.47;;;3.80;99.90;;;;;;5008435;28;20037;-73
2023/01/16 04:40:23;;;;;;;1.55;0.68;;;3.80;99.90;;;;;;5008181;28;20402;-74
2023/01/16 04:42:49;;;;;;;4.75;0.60;;;3.90;99.90;;;;;;5006778;28;20029;-74
2023/01/16 04:45:15;;;;;;;4.55;0.60;;;3.90;99.90;;;;;;5007981;28;20037;-73
2023/01/16 04:47:46;;;;;;;1.27;0.32;;;3.90;99.90;;;;;;5008606;28;20113;-73
2023/01/16 04:50:11;;;;;;;6.03;1.02;;;3.80;99.90;;;;;;5009858;28;20042;-73
2023/01/16 04:52:37;;;;;;;5.57;0.60;;;3.80;99.90;;;;;;5002913;28;20077;-73
2023/01/16 04:55:03;;;;;;;7.43;0.60;;;3.80;99.90;;;;;;5007528;28;20048;-73
2023/01/16 04:57:28;;;;;;;9.57;0.60;;;3.80;99.90;;;;;;5009282;28;20064;-73
2023/01/16 04:59:54;;;;;;;6.30;0.70;;;3.80;99.90;;;;;;5006771;28;20036;-73
2023/01/16 05:02:20;;;;;;;3.63;0.73;;;3.90;99.90;;;;;;5009521;28;20033;-75
2023/01/16 05:04:45;;;;;;;3.10;0.50;;;3.90;99.90;;;;;;5007037;28;20034;-73
2023/01/16 05:07:11;;;;;;;3.65;0.95;;;4.00;99.90;;;;;;5009344;28;20034;-73
2023/01/16 05:09:36;;;;;;;3.80;0.80;;;3.90;99.90;;;;;;5008103;28;20034;-73
2023/01/16 05:12:02;;;;;;;4.78;1.10;;;3.90;99.90;;;;;;5008067;28;20050;-73
2023/01/16 05:14:28;;;;;;;6.10;0.80;;;4.00;99.90;;;;;;5006648;28;20034;-74
2023/01/16 05:16:53;;;;;;;6.15;1.05;;;4.00;99.90;;;;;;5005462;28;20041;-74
2023/01/16 05:19:19;;;;;;;5.53;1.20;;;4.00;99.90;;;;;;5009003;28;20041;-73
2023/01/16 05:21:44;;;;;;;2.05;0.63;;;3.90;99.90;;;;;;5006623;28;20556;-73
2023/01/16 05:24:10;;;;;;;1.95;0.55;;;3.90;99.90;;;;;;5002728;28;20838;-75
2023/01/16 05:26:35;;;;;;;4.13;1.20;;;3.90;99.90;;;;;;5004117;28;20038;-75
2023/01/16 05:29:01;;;;;;;4.00;0.32;;;3.90;99.90;;;;;;4999502;28;20142;-74
2023/01/16 05:31:27;;;;;;;11.88;1.17;;;3.90;99.90;;;;;;5006208;28;20558;-73
2023/01/16 05:33:52;;;;;;;4.35;0.50;;;3.90;99.90;;;;;;4998295;28;20085;-73
2023/01/16 05:36:18;;;;;;;3.75;0.70;;;4.00;99.90;;;;;;5007372;28;20034;-73
2023/01/16 05:38:43;;;;;;;4.72;1.25;;;4.00;99.90;;;;;;5002454;28;20402;-74
2023/01/16 05:41:09;;;;;;;2.20;0.60;;;4.00;99.90;;;;;;5002171;28;20030;-73
2023/01/16 05:43:34;;;;;;;7.65;1.17;;;4.00;99.90;;;;;;5000402;28;20522;-72
2023/01/16 05:46:00;;;;;;;5.50;0.65;;;4.00;99.90;;;;;;5006676;28;20095;-73
2023/01/16 05:48:26;;;;;;;2.55;0.77;;;4.00;99.90;;;;;;5002712;28;20498;-73
2023/01/16 05:50:51;;;;;;;5.35;0.77;;;4.00;99.90;;;;;;5016232;28;20038;-74
2023/01/16 05:53:17;;;;;;;4.68;0.52;;;4.10;99.90;;;;;;5019800;28;20069;-74
2023/01/16 05:55:46;;;;;;;2.28;0.65;;;4.20;99.90;;;;;;5008081;28;20037;-74
2023/01/16 05:58:13;;;;;;;2.60;1.13;;;4.20;99.90;;;;;;5007731;28;20033;-75
2023/01/16 06:00:40;;;;;;;4.45;1.10;;;4.20;99.90;;;;;;5006004;28;20069;-72
2023/01/16 06:03:06;;;;;;;7.45;1.40;;;4.20;99.90;;;;;;5010183;28;20049;-72
2023/01/16 06:05:31;;;;;;;3.75;0.45;;;4.20;99.90;;;;;;4986408;28;20031;-73
2023/01/16 06:07:57;;;;;;;6.93;1.27;;;4.20;99.90;;;;;;4978534;28;20053;-72
2023/01/16 06:10:24;;;;;;;3.97;0.32;;;4.30;99.90;;;;;;4972930;28;20122;-73
2023/01/16 06:12:50;;;;;;;3.58;0.90;;;4.30;99.90;;;;;;4970536;28;20035;-74
2023/01/16 06:15:16;;;;;;;7.22;1.63;;;4.30;99.90;;;;;;4976967;28;20105;-72
2023/01/16 06:17:42;;;;;;;5.53;0.80;;;4.30;99.90;;;;;;4972860;28;20089;-74
2023/01/16 06:20:09;;;;;;;4.15;0.70;;;4.30;99.90;;;;;;4969043;28;20561;-72
2023/01/16 06:22:35;;;;;;;4.60;1.00;;;4.30;99.90;;;;;;4975511;28;20506;-71
2023/01/16 06:25:00;;;;;;;6.05;0.77;;;4.20;99.90;;;;;;4970027;28;20155;-73
2023/01/16 06:27:26;;;;;;;6.85;0.80;;;4.20;99.90;;;;;;4975133;28;20057;-73
2023/01/16 06:29:51;;;;;;;4.30;1.00;;;4.30;99.90;;;;;;4971465;28;20391;-72
2023/01/16 06:32:17;;;;;;;5.07;1.10;;;4.20;99.90;;;;;;4975632;28;20035;-72
2023/01/16 06:34:44;;;;;;;7.80;0.95;;;4.30;99.90;;;;;;4971226;28;20040;-71
2023/01/16 06:37:10;;;;;;;2.72;1.02;;;4.20;99.90;;;;;;4973217;28;20479;-71
2023/01/16 06:39:35;;;;;;;10.18;1.42;;;4.20;99.90;;;;;;4976108;28;20417;-71
2023/01/16 06:42:04;;;;;;;1.95;0.52;;;4.20;99.90;;;;;;4975842;28;20042;-72
2023/01/16 06:44:33;;;;;;;4.07;0.70;;;4.20;99.90;;;;;;4971890;28;20034;-71
2023/01/16 06:47:00;;;;;;;4.97;1.20;;;4.20;99.90;;;;;;4977509;28;20054;-72
2023/01/16 06:49:25;;;;;;;7.55;1.42;;;4.20;99.90;;;;;;4979801;28;20041;-71
2023/01/16 06:51:51;;;;;;;10.75;1.85;;;4.20;99.90;;;;;;4979027;28;20026;-70
2023/01/16 06:54:17;;;;;;;8.50;0.90;;;4.20;99.90;;;;;;4977271;28;20448;-71
2023/01/16 06:56:42;;;;;;;4.93;1.23;;;4.20;99.90;;;;;;4980420;28;20071;-70
2023/01/16 06:59:08;;;;;;;2.40;0.82;;;4.30;99.90;;;;;;4976349;28;20023;-71
2023/01/16 07:01:33;;;;;;;5.65;1.10;;;4.30;99.90;;;;;;4981614;28;20030;-71
2023/01/16 07:03:59;;;;;;;5.82;0.70;;;4.30;99.90;;;;;;4979428;28;20506;-71
2023/01/16 07:06:24;;;;;;;7.80;0.80;;;4.30;99.90;;;;;;4978277;28;20081;-70
2023/01/16 07:08:50;;;;;;;7.22;0.70;;;4.40;99.90;;;;;;4975940;28;20442;-71
2023/01/16 07:11:17;;;;;;;1.95;0.75;;;4.30;99.90;;;;;;4976699;28;20026;-71
2023/01/16 07:13:43;;;;;;;2.15;0.50;;;4.40;99.90;;;;;;4976338;28;20042;-74
2023/01/16 07:24:30;;;;;;;3.60;0.60;;;4.30;99.90;;;;;;4978725;28;20414;-74
2023/01/16 07:27:00;;;;;;;2.78;1.02;;;4.30;99.90;;;;;;4976450;28;20057;-71
2023/01/16 07:29:28;;;;;;;6.15;0.90;;;4.30;99.90;;;;;;4982371;28;20116;-71
2023/01/16 07:31:54;;;;;;;2.50;0.70;;;4.30;99.90;;;;;;4979140;28;20093;-71
2023/01/16 07:34:20;;;;;;;6.45;0.80;;;4.30;99.90;;;;;;4978691;28;20061;-71
2023/01/16 07:36:46;;;;;;;14.65;1.88;;;4.30;99.90;;;;;;4980841;28;20504;-71
2023/01/16 07:39:11;;;;;;;5.32;0.40;;;4.20;99.90;;;;;;5000638;28;20081;-71
2023/01/16 07:41:37;;;;;;;5.15;0.70;;;4.20;99.90;;;;;;5005430;28;20476;-71
2023/01/16 07:44:03;;;;;;;3.72;0.50;;;4.20;99.90;;;;;;5002555;28;20030;-71
2023/01/16 07:46:28;;;;;;;2.17;0.50;;;4.20;99.90;;;;;;5006155;28;20042;-71
2023/01/16 07:48:56;;;;;;;3.17;1.08;;;4.20;99.90;;;;;;5014216;28;20030;-70
2023/01/16 07:51:22;;;;;;;2.53;0.80;;;4.10;99.90;;;;;;5025047;28;20030;-70
2023/01/16 07:53:48;;;;;;;6.30;0.88;;;4.20;99.90;;;;;;4993371;28;20765;-70
2023/01/16 07:56:13;;;;;;;5.35;0.75;;;4.20;99.90;;;;;;5008298;28;20048;-73
2023/01/16 07:58:41;;;;;;;1.15;0.45;;;4.20;99.90;;;;;;5006535;28;20062;-72
2023/01/16 08:01:07;;;;;;;11.73;1.38;;;4.20;99.90;;;;;;5003773;28;20053;-71
2023/01/16 08:03:32;;;;;;;5.18;0.57;;;4.10;99.90;;;;;;5007879;28;20153;-74
2023/01/16 08:05:58;;;;;;;6.68;0.45;;;4.20;99.90;;;;;;5006998;28;20673;-71
2023/01/16 08:08:25;;;;;;;3.20;0.50;;;4.20;99.90;;;;;;5007271;28;20037;-73
2023/01/16 08:10:55;;;;;;;2.00;0.30;;;4.10;99.90;;;;;;5015825;28;20038;-71
2023/01/16 08:13:21;;;;;;;4.40;0.90;;;4.10;99.90;;;;;;5017763;28;20080;-71
2023/01/16 08:15:47;;;;;;;2.30;0.30;;;4.20;99.90;;;;;;5004413;28;20429;-72
2023/01/16 08:18:13;;;;;;;2.08;0.30;;;4.20;99.90;;;;;;5013679;28;20599;-73
2023/01/16 08:20:38;;;;;;;7.32;0.65;;;4.10;99.90;;;;;;5004036;28;20041;-70
2023/01/16 08:23:04;;;;;;;2.30;0.45;;;4.20;99.90;;;;;;5004066;28;20446;-72
2023/01/16 08:25:30;;;;;;;2.72;0.30;;;4.20;99.90;;;;;;5005453;28;20437;-72
2023/01/16 08:27:55;;;;;;;4.35;0.52;;;4.20;99.90;;;;;;5000153;28;20359;-72
2023/01/16 08:30:22;;;;;;;2.90;0.20;;;4.20;99.90;;;;;;5003659;28;20050;-72
2023/01/16 08:32:47;;;;;;;2.92;0.65;;;4.20;99.90;;;;;;5003015;28;20042;-73
2023/01/16 08:35:13;;;;;;;2.65;0.40;;;4.20;99.90;;;;;;5000943;28;20040;-72
2023/01/16 08:37:47;;;;;;;1.83;0.40;;;4.20;99.90;;;;;;4996838;28;20055;-71
2023/01/16 08:40:12;;;;;;;3.88;0.32;;;4.20;99.90;;;;;;5006259;28;20109;-72
2023/01/16 08:53:41;;;;;;;2.85;1.42;;;4.30;99.90;;;;;;5002795;28;20107;-72
2023/01/16 08:56:07;;;;;;;2.35;0.57;;;4.30;99.90;;;;;;5003275;28;20053;-72
2023/01/16 08:58:32;;;;;;;4.35;0.93;;;4.30;99.90;;;;;;5000445;28;20034;-74
2023/01/16 09:00:58;;;;;;;4.63;0.63;;;4.30;99.90;;;;;;5003320;28;20100;-76
2023/01/16 09:03:24;;;;;;;6.53;0.80;;;4.40;99.90;;;;;;5011906;28;20034;-72
2023/01/16 09:05:49;;;;;;;4.50;0.75;;;4.30;99.90;;;;;;4998475;28;20038;-73
2023/01/16 09:08:15;;;;;;;4.55;0.85;;;4.40;99.90;;;;;;5001970;28;20030;-74
2023/01/16 09:13:48;;;;;;;2.72;1.02;;;4.40;99.90;;;;;;5003427;28;20072;-71
2023/01/16 09:16:10;;;;;;;12.73;1.98;;;4.40;99.90;;;;;;5000581;28;20088;-72
2023/01/16 09:18:36;;;;;;;3.67;1.30;;;4.40;99.90;;;;;;5005529;28;20034;-74
2023/01/16 09:21:02;;;;;;;3.22;0.85;;;4.50;99.90;;;;;;5013477;28;20037;-74
2023/01/16 09:23:28;;;;;;;1.90;0.93;;;4.40;99.90;;;;;;5005015;28;20106;-71
2023/01/16 09:25:53;;;;;;;4.18;1.00;;;4.40;99.90;;;;;;5006876;28;20045;-71
2023/01/16 09:28:19;;;;;;;8.27;1.38;;;4.50;99.90;;;;;;5001716;28;20497;-74
2023/01/16 09:30:44;;;;;;;2.38;1.05;;;4.50;99.90;;;;;;5005233;28;20133;-74
2023/01/16 09:33:10;;;;;;;3.83;1.60;;;4.60;99.90;;;;;;5002569;28;20486;-70
2023/01/16 09:35:36;;;;;;;5.75;1.70;;;4.50;99.90;;;;;;5004830;28;20037;-70
2023/01/16 09:38:01;;;;;;;5.50;1.90;;;4.60;99.90;;;;;;4999052;28;20121;-73
2023/01/16 09:40:27;;;;;;;1.00;0.70;;;4.60;99.90;;;;;;4996051;28;20100;-71
2023/01/16 09:43:37;;;;;;;4.20;1.10;;;4.60;99.90;;;;;;5001591;28;20026;-72
2023/01/16 09:46:18;;;;;;;6.22;1.05;;;4.60;99.90;;;;;;5003260;28;20061;-74
2023/01/16 09:49:11;;;;;;;4.05;1.00;;;4.70;99.90;;;;;;5003302;28;20092;-72
2023/01/16 09:58:34;;;;;;;3.15;0.63;;;4.70;99.90;;;;;;4997972;28;20061;-75
2023/01/16 10:00:08;;;;;;;2.28;1.15;;;4.80;99.90;;;;;;4993209;28;20041;-71
2023/01/16 10:02:35;;;;;;;4.97;1.10;;;4.80;99.90;;;;;;5006492;28;20050;-73
2023/01/16 10:05:04;;;;;;;5.68;1.45;;;4.80;99.90;;;;;;5000843;28;20033;-71
2023/01/16 10:07:32;;;;;;;3.83;1.05;;;4.90;99.90;;;;;;4999249;28;20457;-69
2023/01/16 10:10:07;;;;;;;2.92;0.70;;;4.90;99.90;;;;;;5001398;28;20060;-72
2023/01/16 10:12:35;;;;;;;1.48;0.50;;;4.80;99.90;;;;;;5003792;28;20557;-72
2023/01/16 10:15:19;;;;;;;2.38;0.47;;;4.90;99.90;;;;;;4998352;28;20048;-72
2023/01/16 10:18:12;;;;;;;2.63;0.80;;;4.80;99.90;;;;;;4997763;28;20030;-70
2023/01/16 10:21:11;;;;;;;3.88;0.80;;;4.80;99.90;;;;;;5001180;28;20054;-72
2023/01/16 10:23:42;;;;;;;2.10;0.93;;;4.80;99.90;;;;;;5003304;28;20041;-72
2023/01/16 10:26:28;;;;;;;3.10;0.73;;;4.70;99.90;;;;;;5011027;28;20030;-72
2023/01/16 10:29:15;;;;;;;0.70;0.38;;;4.70;99.90;;;;;;4997808;28;20418;-71
2023/01/16 10:31:47;;;;;;;3.33;0.35;;;4.70;99.90;;;;;;4999407;28;20145;-72
2023/01/16 10:34:28;;;;;;;0.32;0.30;;;4.70;99.90;;;;;;5005401;28;20042;-72
2023/01/16 10:36:59;;;;;;;0.50;0.40;;;4.70;99.90;;;;;;4999732;28;20071;-73
2023/01/16 10:39:32;;;;;;;1.40;0.20;;;4.70;99.90;;;;;;5001251;28;20046;-72
2023/01/16 10:50:29;;;;;;;1.40;0.20;;;4.60;99.90;;;;;;5004773;28;20044;-73
2023/01/16 10:52:56;;;;;;;1.42;0.28;;;4.70;99.90;;;;;;5000583;28;20035;-73
2023/01/16 10:55:22;;;;;;;2.25;0.50;;;4.70;99.90;;;;;;5006161;28;20058;-73
2023/01/16 10:57:52;;;;;;;0.77;0.30;;;4.70;99.90;;;;;;5001689;28;20423;-72
2023/01/16 11:00:29;;;;;;;4.70;0.75;;;4.70;99.90;;;;;;4998288;28;20092;-71
2023/01/16 11:02:58;;;;;;;0.52;0.22;;;4.70;99.90;;;;;;5002746;28;20486;-70
2023/01/16 11:05:35;;;;;;;1.65;0.20;;;4.80;99.90;;;;;;5004691;28;20096;-72
2023/01/16 11:08:21;;;;;;;3.65;0.45;;;4.80;99.90;;;;;;5001188;28;20118;-71
2023/01/16 11:10:50;;;;;;;1.08;0.47;;;4.80;99.90;;;;;;4992519;28;20441;-73
2023/01/16 11:19:17;;;;;;;2.38;0.57;;;4.70;99.90;;;;;;4982922;28;20046;-72
2023/01/16 11:21:54;;;;;;;0.63;0.20;;;4.80;99.90;;;;;;4995174;28;20757;-73
2023/01/16 11:24:30;;;;;;;1.70;0.32;;;4.80;99.90;;;;;;5011412;28;20029;-74
2023/01/16 11:26:58;;;;;;;0.85;0.40;;;4.90;99.90;;;;;;4995462;28;20634;-73
2023/01/16 11:29:30;;;;;;;0.55;0.22;;;4.90;99.90;;;;;;5008308;28;20458;-73
2023/01/16 11:32:05;;;;;;;1.30;0.40;;;4.90;99.90;;;;;;5006282;28;20033;-75
2023/01/16 11:34:31;;;;;;;0.60;0.20;;;5.00;99.90;;;;;;4994595;28;20034;-72
2023/01/16 11:37:06;;;;;;;1.23;0.28;;;5.10;99.90;;;;;;4999450;28;20033;-73
2023/01/16 11:39:34;;;;;;;0.65;0.20;;;5.20;99.90;;;;;;5005901;28;20061;-73
2023/01/16 11:47:43;;;;;;;1.13;0.10;;;5.50;99.90;;;;;;4984902;28;20045;-73
2023/01/16 11:50:47;;;;;;;1.50;0.32;;;5.60;99.90;;;;;;4988028;28;20319;-73
2023/01/16 11:53:12;;;;;;;1.13;0.32;;;5.80;99.90;;;;;;5003821;28;20041;-73
2023/01/16 11:55:59;;;;;;;2.28;0.40;;;5.90;99.90;;;;;;5004859;28;20046;-74
2023/01/16 11:59:06;;;;;;;2.17;0.50;;;6.00;99.90;;;;;;4987738;28;20049;-73
2023/01/16 12:02:16;;;;;;;0.50;0.15;;;6.20;99.90;;;;;;5006852;28;20092;-73
2023/01/16 12:08:05;;;;;;;0.10;0.05;;;6.30;99.90;;;;;;4986302;28;20057;-73
2023/01/16 12:11:08;;;;;;;0.40;0.15;;;6.30;99.90;;;;;;4997697;28;20034;-72
2023/01/16 12:16:50;;;;;;;3.60;0.10;;;6.10;99.90;;;;;;5001479;28;20041;-72
2023/01/16 12:19:28;;;;;;;0.57;0.10;;;6.00;99.90;;;;;;5007439;28;20034;-72
2023/01/16 12:22:06;;;;;;;1.17;0.30;;;5.90;99.90;;;;;;5006944;28;20474;-72
2023/01/16 12:24:59;;;;;;;0.35;0.05;;;5.90;99.90;;;;;;5002719;28;20066;-74
2023/01/16 12:27:40;;;;;;;0.68;0.10;;;5.80;99.90;;;;;;4990572;28;20503;-72
2023/01/16 12:30:23;;;;;;;0.52;0.22;;;5.70;99.90;;;;;;5004746;28;20038;-71
2023/01/16 12:33:11;;;;;;;0.50;0.10;;;5.70;99.90;;;;;;4993199;28;20041;-73
2023/01/16 12:35:56;;;;;;;0.55;0.10;;;5.60;99.90;;;;;;5001797;28;20503;-71
2023/01/16 12:38:36;;;;;;;0.77;0.20;;;5.50;99.90;;;;;;5003637;28;20081;-72
2023/01/16 12:44:45;;;;;;;0.80;0.38;;;5.60;99.90;;;;;;4997114;28;20116;-72
2023/01/16 12:47:20;;;;;;;1.77;0.32;;;5.60;99.90;;;;;;5002410;28;20121;-73
2023/01/16 12:49:56;;;;;;;0.88;0.20;;;5.60;99.90;;;;;;4995463;28;20117;-71
2023/01/16 12:52:42;;;;;;;0.20;0.10;;;5.60;99.90;;;;;;5007927;28;20410;-73
2023/01/16 12:55:17;;;;;;;2.67;0.25;;;5.60;99.90;;;;;;4985899;28;20035;-72
2023/01/16 12:57:59;;;;;;;0.90;0.35;;;5.60;99.90;;;;;;4996849;28;20039;-73
2023/01/16 13:00:31;;;;;;;3.47;0.20;;;5.70;99.90;;;;;;4986522;28;20035;-72
2023/01/16 13:03:15;;;;;;;0.50;0.10;;;5.70;99.90;;;;;;4984750;28;20042;-72
2023/01/16 13:05:43;;;;;;;0.30;0.15;;;5.70;99.90;;;;;;4999823;28;20406;-72
2023/01/16 13:08:29;;;;;;;3.83;0.20;;;5.70;99.90;;;;;;4986069;28;20034;-74
2023/01/16 13:13:54;;;;;;;0.93;0.38;;;5.70;99.90;;;;;;4983286;28;20096;-71
2023/01/16 13:16:32;;;;;;;0.45;0.20;;;5.70;99.90;;;;;;4984598;28;20038;-72
2023/01/16 13:19:18;;;;;;;1.38;0.40;;;5.70;99.90;;;;;;4980279;28;20031;-72
2023/01/16 13:22:03;;;;;;;3.38;1.45;;;5.60;99.90;;;;;;4971724;28;20037;-73
2023/01/16 13:24:40;;;;;;;0.75;0.35;;;5.60;99.90;;;;;;4971943;28;20070;-73
2023/01/16 13:27:13;;;;;;;0.40;0.30;;;5.60;99.90;;;;;;4974319;28;20066;-72
2023/01/16 13:29:54;;;;;;;0.50;0.20;;;5.60;99.90;;;;;;4969104;28;20113;-73
2023/01/16 13:32:32;;;;;;;0.38;0.13;;;5.60;99.90;;;;;;4971332;28;20134;-73
2023/01/16 13:35:06;;;;;;;0.43;0.35;;;5.60;99.90;;;;;;4970857;28;20030;-72
2023/01/16 13:37:57;;;;;;;1.50;0.40;;;5.60;99.90;;;;;;4975718;28;20038;-73
2023/01/16 13:40:37;;;;;;;5.97;0.80;;;5.50;99.90;;;;;;4972646;28;20458;-72
2023/01/16 13:45:55;;;;;;;0.70;0.40;;;5.70;99.90;;;;;;4969983;28;20361;-72
2023/01/16 13:48:31;;;;;;;2.22;1.05;;;5.70;99.90;;;;;;4975505;28;20083;-71
2023/01/16 13:51:00;;;;;;;0.25;0.20;;;5.70;99.90;;;;;;4974121;28;20027;-71
2023/01/16 13:53:28;;;;;;;3.30;0.73;;;5.70;99.90;;;;;;4969694;28;20470;-72
2023/01/16 13:56:05;;;;;;;1.92;0.20;;;5.70;99.90;;;;;;4978728;28;20107;-72
2023/01/16 13:58:31;;;;;;;1.50;0.30;;;5.70;99.90;;;;;;4981422;28;20066;-71
2023/01/16 14:01:03;;;;;;;1.52;0.30;;;5.70;99.90;;;;;;4977545;28;20050;-72
2023/01/16 14:03:31;;;;;;;2.15;0.95;;;5.70;99.90;;;;;;4977618;28;20039;-73
2023/01/16 14:06:11;;;;;;;0.47;0.25;;;5.70;99.90;;;;;;4981355;28;20072;-74
2023/01/16 14:09:04;;;;;;;;;;;5.60;99.90;;;;;;4992832;28;20565;-73
2023/01/16 14:12:21;;;;;;;2.80;1.35;;;5.60;99.90;;;;;;4993887;28;20015;-71
2023/01/16 14:17:52;;;;;;;2.25;0.60;;;5.60;99.90;;;;;;4981175;28;20077;-72
2023/01/16 14:20:43;;;;;;;1.92;0.50;;;5.60;99.90;;;;;;4980608;28;20130;-72
2023/01/16 14:26:21;;;;;;;0.65;0.32;;;5.60;99.90;;;;;;4979677;28;20054;-72
2023/01/16 14:28:50;;;;;;;1.58;0.32;;;5.60;99.90;;;;;;4979320;28;20121;-71
2023/01/16 14:31:42;;;;;;;2.20;0.50;;;5.60;99.90;;;;;;4976004;28;20034;-71
2023/01/16 14:34:17;;;;;;;2.13;0.40;;;5.60;99.90;;;;;;4976776;28;20066;-73
2023/01/16 14:36:47;;;;;;;3.50;1.30;;;5.60;99.90;;;;;;4982082;28;20035;-73